createdAt,value
2018-06-19T00:01:40.001Z,5.20
2018-06-19T00:04:12.373Z,4.53
2018-06-19T00:06:40.547Z,5.57
2018-06-19T00:09:10.340Z,5.40
2018-06-19T00:11:40.657Z,4.90
2018-06-19T00:14:09.859Z,6.28
2018-06-19T00:16:41.355Z,4.73
2018-06-19T00:19:12.811Z,4.83
2018-06-19T00:21:45.846Z,4.90
2018-06-19T00:24:14.288Z,4.72
2018-06-19T00:26:42.452Z,4.97
2018-06-19T00:29:11.135Z,6.58
2018-06-19T00:31:39.371Z,5.50
2018-06-19T00:34:07.600Z,4.90
2018-06-19T00:36:36.021Z,5.17
2018-06-19T00:39:08.692Z,5.20
2018-06-19T00:41:37.256Z,5.40
2018-06-19T00:44:08.679Z,5.17
2018-06-19T00:46:39.643Z,4.85
2018-06-19T00:49:12.103Z,5.30
2018-06-19T00:51:41.829Z,4.65
2018-06-19T00:54:10.024Z,5.20
2018-06-19T00:56:54.526Z,5.00
2018-06-19T00:59:22.849Z,5.65
2018-06-19T01:01:51.421Z,4.72
2018-06-19T01:04:23.743Z,6.70
2018-06-19T01:06:51.921Z,5.20
2018-06-19T01:09:20.346Z,5.95
2018-06-19T01:11:48.524Z,4.87
2018-06-19T01:14:16.758Z,5.47
2018-06-19T01:16:45.489Z,5.30
2018-06-19T01:19:16.904Z,5.10
2018-06-19T01:21:46.028Z,5.97
2018-06-19T01:24:15.077Z,5.10
2018-06-19T01:26:43.698Z,6.12
2018-06-19T01:29:12.941Z,5.63
2018-06-19T01:31:41.604Z,4.72
2018-06-19T01:34:12.580Z,6.50
2018-06-19T01:36:42.348Z,5.42
2018-06-19T01:39:11.775Z,5.80
2018-06-19T01:41:40.438Z,5.87
2018-06-19T01:44:08.679Z,4.90
2018-06-19T01:46:37.796Z,5.43
2018-06-19T01:49:14.077Z,5.87
2018-06-19T01:51:42.435Z,5.30
2018-06-19T01:54:11.879Z,5.80
2018-06-19T01:56:41.041Z,6.17
2018-06-19T01:59:09.224Z,5.40
2018-06-19T02:01:38.777Z,4.92
2018-06-19T02:04:08.054Z,5.30
2018-06-19T02:06:36.287Z,4.67
2018-06-19T02:09:06.886Z,5.47
2018-06-19T02:11:35.059Z,5.37
2018-06-19T02:14:03.267Z,6.03
2018-06-19T02:16:31.707Z,5.90
2018-06-19T02:18:59.895Z,5.67
2018-06-19T02:21:28.095Z,6.17
2018-06-19T02:23:56.535Z,5.90
2018-06-19T02:26:24.816Z,5.60
2018-06-19T02:28:53.355Z,5.20
2018-06-19T02:31:22.762Z,5.73
2018-06-19T02:33:50.917Z,5.60
2018-06-19T02:36:19.119Z,5.60
2018-06-19T02:38:48.084Z,5.53
2018-06-19T02:41:16.300Z,5.72
2018-06-19T02:43:44.508Z,5.10
2018-06-19T02:46:13.117Z,5.90
2018-06-19T02:48:42.888Z,6.03
2018-06-19T02:51:11.932Z,5.87
2018-06-19T02:53:40.111Z,6.67
2018-06-19T02:56:08.290Z,5.20
2018-06-19T02:58:38.935Z,5.42
2018-06-19T03:01:08.443Z,5.65
2018-06-19T03:03:38.395Z,5.98
2018-06-19T03:06:07.741Z,5.80
2018-06-19T03:08:36.467Z,4.90
2018-06-19T03:11:04.909Z,5.65
2018-06-19T03:13:33.090Z,5.97
2018-06-19T03:16:02.351Z,5.70
2018-06-19T03:18:30.604Z,5.67
2018-06-19T03:20:59.339Z,5.22
2018-06-19T03:23:27.807Z,6.20
2018-06-19T03:25:56.021Z,5.30
2018-06-19T03:28:24.219Z,5.65
2018-06-19T03:30:53.081Z,6.40
2018-06-19T03:33:21.976Z,5.00
2018-06-19T03:35:50.176Z,5.73
2018-06-19T03:38:18.983Z,5.73
2018-06-19T03:40:47.541Z,6.00
2018-06-19T03:43:15.747Z,6.50
2018-06-19T03:45:43.963Z,6.17
2018-06-19T03:48:12.130Z,5.40
2018-06-19T03:50:45.286Z,5.80
2018-06-19T03:53:13.517Z,5.05
2018-06-19T03:55:43.020Z,6.80
2018-06-19T03:58:11.252Z,5.50
2018-06-19T04:00:39.727Z,5.00
2018-06-19T04:03:08.932Z,5.70
2018-06-19T04:05:42.041Z,5.37
2018-06-19T04:08:13.947Z,4.70
2018-06-19T04:10:42.175Z,5.80
2018-06-19T04:13:10.397Z,5.25
2018-06-19T04:15:39.351Z,4.40
2018-06-19T04:18:09.564Z,5.10
2018-06-19T04:30:18.221Z,5.50
2018-06-19T04:32:46.519Z,5.10
2018-06-19T04:35:14.772Z,5.55
2018-06-19T04:37:47.203Z,5.20
2018-06-19T04:40:15.519Z,5.08
2018-06-19T04:42:43.781Z,5.80
2018-06-19T04:45:11.988Z,5.37
2018-06-19T04:47:40.227Z,5.08
2018-06-19T04:50:08.423Z,5.10
2018-06-19T04:52:41.546Z,4.83
2018-06-19T04:55:09.824Z,5.15
2018-06-19T04:57:38.048Z,5.33
2018-06-19T05:00:07.194Z,5.87
2018-06-19T05:02:35.417Z,3.83
2018-06-19T05:05:03.908Z,5.03
2018-06-19T05:07:32.120Z,4.50
2018-06-19T05:10:00.403Z,5.23
2018-06-19T05:12:30.008Z,4.63
2018-06-19T05:14:58.225Z,4.67
2018-06-19T05:17:26.768Z,5.53
2018-06-19T05:19:55.089Z,4.70
2018-06-19T05:22:23.319Z,4.70
2018-06-19T05:24:51.561Z,4.33
2018-06-19T05:27:20.037Z,4.60
2018-06-19T05:29:48.760Z,5.00
2018-06-19T05:32:17.600Z,4.40
2018-06-19T05:34:47.820Z,3.72
2018-06-19T05:37:19.681Z,4.17
2018-06-19T05:39:47.884Z,4.40
2018-06-19T05:42:17.356Z,4.33
2018-06-19T05:44:46.406Z,4.23
2018-06-19T05:47:16.448Z,3.67
2018-06-19T05:49:44.675Z,4.90
2018-06-19T05:52:20.172Z,3.77
2018-06-19T05:54:51.627Z,4.00
2018-06-19T05:57:19.832Z,3.77
2018-06-19T05:59:48.464Z,3.30
2018-06-19T06:02:18.983Z,2.93
2018-06-19T06:04:47.179Z,3.20
2018-06-19T06:07:19.447Z,3.70
2018-06-19T06:09:49.551Z,2.93
2018-06-19T06:12:18.854Z,3.57
2018-06-19T06:14:47.025Z,3.33
2018-06-19T06:17:16.162Z,3.57
2018-06-19T06:19:44.499Z,2.45
2018-06-19T06:22:12.792Z,2.90
2018-06-19T06:24:45.909Z,3.03
2018-06-19T06:27:14.755Z,3.30
2018-06-19T06:29:45.040Z,3.10
2018-06-19T06:32:13.311Z,3.67
2018-06-19T06:34:42.008Z,3.40
2018-06-19T06:37:10.988Z,3.70
2018-06-19T06:39:51.036Z,3.50
2018-06-19T06:42:19.823Z,3.10
2018-06-19T06:44:48.616Z,3.90
2018-06-19T06:47:18.383Z,3.72
2018-06-19T06:49:47.369Z,5.12
2018-06-19T06:52:16.740Z,4.50
2018-06-19T06:54:48.600Z,4.20
2018-06-19T06:57:16.802Z,3.87
2018-06-19T06:59:45.642Z,4.87
2018-06-19T07:02:14.600Z,3.33
2018-06-19T07:04:43.420Z,4.03
2018-06-19T07:07:12.287Z,3.02
2018-06-19T07:09:44.491Z,4.10
2018-06-19T07:12:14.212Z,3.20
2018-06-19T07:14:43.080Z,3.90
2018-06-19T07:17:11.285Z,3.70
2018-06-19T07:19:39.886Z,3.27
2018-06-19T07:22:08.337Z,3.67
2018-06-19T07:24:41.117Z,4.10
2018-06-19T07:27:10.144Z,3.40
2018-06-19T07:29:38.984Z,3.05
2018-06-19T07:32:07.764Z,3.70
2018-06-19T07:34:36.611Z,3.70
2018-06-19T07:37:04.937Z,3.50
2018-06-19T07:39:34.500Z,3.70
2018-06-19T07:42:02.849Z,4.30
2018-06-19T07:44:31.074Z,3.90
2018-06-19T07:46:59.888Z,3.53
2018-06-19T07:49:28.864Z,3.42
2018-06-19T07:51:56.844Z,3.60
2018-06-19T07:54:29.487Z,3.90
2018-06-19T07:56:57.910Z,2.75
2018-06-19T07:59:29.182Z,3.52
2018-06-19T08:01:57.379Z,3.03
2018-06-19T08:04:26.164Z,2.80
2018-06-19T08:06:55.156Z,3.30
2018-06-19T08:09:24.007Z,3.43
2018-06-19T08:11:52.640Z,3.83
2018-06-19T08:14:20.875Z,2.80
2018-06-19T08:16:49.616Z,3.30
2018-06-19T08:19:17.649Z,2.80
2018-06-19T08:21:45.855Z,2.50
2018-06-19T08:24:14.428Z,3.20
2018-06-19T08:26:42.715Z,3.20
2018-06-19T08:29:10.879Z,2.67
2018-06-19T08:31:39.142Z,2.55
2018-06-19T08:34:07.423Z,2.43
2018-06-19T08:36:35.671Z,2.60
2018-06-19T08:39:06.036Z,2.58
2018-06-19T08:41:34.311Z,2.20
2018-06-19T08:44:03.558Z,2.22
2018-06-19T08:46:31.745Z,3.13
2018-06-19T08:48:59.984Z,2.57
2018-06-19T08:51:29.132Z,2.90
2018-06-19T08:53:57.327Z,3.10
2018-06-19T08:56:25.503Z,2.60
2018-06-19T08:58:54.160Z,2.27
2018-06-19T09:01:22.865Z,2.20
2018-06-19T09:03:51.064Z,2.30
2018-06-19T09:06:20.237Z,2.20
2018-06-19T09:08:49.879Z,2.15
2018-06-19T09:11:19.071Z,1.90
2018-06-19T09:13:55.157Z,2.73
2018-06-19T09:16:23.455Z,2.50
2018-06-19T09:18:51.664Z,2.17
2018-06-19T09:21:20.062Z,2.40
2018-06-19T09:23:49.647Z,2.07
2018-06-19T09:26:18.223Z,1.73
2018-06-19T09:28:50.628Z,3.13
2018-06-19T09:31:19.133Z,3.02
2018-06-19T09:33:48.316Z,2.20
2018-06-19T09:36:18.092Z,1.60
2018-06-19T09:38:46.654Z,2.00
2018-06-19T09:41:18.196Z,1.80
2018-06-19T09:43:50.576Z,2.50
2018-06-19T09:46:19.420Z,2.00
2018-06-19T09:48:49.117Z,1.90
2018-06-19T09:51:18.407Z,2.20
2018-06-19T09:53:46.883Z,1.92
2018-06-19T09:56:15.936Z,2.10
2018-06-19T09:58:44.273Z,3.62
2018-06-19T10:01:12.681Z,1.97
2018-06-19T10:03:41.487Z,1.67
2018-06-19T10:06:09.763Z,2.27
2018-06-19T10:08:37.928Z,2.10
2018-06-19T10:11:06.560Z,2.60
2018-06-19T10:13:34.817Z,1.95
2018-06-19T10:16:02.764Z,1.80
2018-06-19T10:18:31.140Z,1.77
2018-06-19T10:20:59.344Z,1.63
2018-06-19T10:23:27.303Z,2.40
2018-06-19T10:25:55.960Z,1.80
2018-06-19T10:28:28.507Z,1.60
2018-06-19T10:30:56.709Z,1.60
2018-06-19T10:33:25.052Z,1.70
2018-06-19T10:35:53.322Z,1.97
2018-06-19T10:38:21.522Z,2.47
2018-06-19T10:40:49.860Z,2.00
2018-06-19T10:43:21.922Z,2.25
2018-06-19T10:45:50.262Z,2.60
2018-06-19T10:48:19.761Z,2.43
2018-06-19T10:50:48.045Z,1.87
2018-06-19T10:53:16.531Z,2.30
2018-06-19T10:55:45.837Z,1.90
2018-06-19T10:58:14.936Z,1.77
2018-06-19T11:00:43.451Z,2.20
2018-06-19T11:03:12.595Z,1.87
2018-06-19T11:05:42.667Z,2.30
2018-06-19T11:08:11.934Z,2.92
2018-06-19T11:10:41.181Z,1.92
2018-06-19T11:13:13.616Z,1.77
2018-06-19T11:15:42.791Z,1.73
2018-06-19T11:18:11.110Z,1.62
2018-06-19T11:20:39.076Z,2.00
2018-06-19T11:23:07.615Z,2.70
2018-06-19T11:25:35.820Z,1.87
2018-06-19T11:28:07.400Z,1.70
2018-06-19T11:30:35.319Z,1.92
2018-06-19T11:33:03.563Z,2.10
2018-06-19T11:35:32.479Z,1.90
2018-06-19T11:38:04.459Z,2.67
2018-06-19T11:40:32.936Z,2.70
2018-06-19T11:43:01.144Z,2.25
2018-06-19T11:45:33.445Z,2.10
2018-06-19T11:48:03.946Z,2.40
2018-06-19T11:50:33.558Z,1.67
2018-06-19T11:53:01.527Z,1.65
2018-06-19T11:55:30.064Z,2.33
2018-06-19T11:58:02.279Z,2.05
2018-06-19T12:00:30.472Z,1.70
2018-06-19T12:02:59.018Z,1.92
2018-06-19T12:05:27.256Z,1.70
2018-06-19T12:08:00.212Z,1.80
2018-06-19T12:10:29.091Z,2.07
2018-06-19T12:12:57.370Z,2.23
2018-06-19T12:15:29.025Z,1.95
2018-06-19T12:17:56.995Z,2.27
2018-06-19T12:20:25.215Z,2.27
2018-06-19T12:22:54.973Z,2.95
2018-06-19T12:25:25.183Z,1.72
2018-06-19T12:27:53.726Z,3.07
2018-06-19T12:30:26.565Z,1.50
2018-06-19T12:32:56.135Z,1.47
2018-06-19T12:35:25.076Z,1.75
2018-06-19T12:37:53.656Z,2.20
2018-06-19T12:40:22.352Z,1.87
2018-06-19T12:42:51.316Z,6.77
2018-06-19T12:45:27.614Z,2.00
2018-06-19T12:48:02.712Z,1.82
2018-06-19T12:51:50.616Z,1.85
2018-06-19T12:55:31.392Z,1.87
2018-06-19T12:58:00.243Z,2.62
2018-06-19T13:00:36.308Z,2.37
2018-06-19T13:03:15.863Z,2.03
2018-06-19T13:05:55.435Z,2.27
2018-06-19T13:08:23.636Z,1.75
2018-06-19T13:10:51.871Z,1.72
2018-06-19T13:13:31.918Z,1.80
2018-06-19T13:16:05.933Z,2.37
2018-06-19T13:18:45.496Z,1.63
2018-06-19T13:21:13.763Z,2.67
2018-06-19T13:23:42.219Z,2.00
2018-06-19T13:26:11.183Z,2.10
2018-06-19T13:29:58.528Z,3.10
2018-06-19T13:32:27.197Z,1.70
2018-06-19T13:34:55.568Z,2.00
2018-06-19T13:37:23.971Z,2.08
2018-06-19T13:41:20.342Z,2.47
2018-06-19T13:44:01.373Z,2.40
2018-06-19T13:46:33.228Z,2.20
2018-06-19T13:49:01.568Z,1.75
2018-06-19T13:51:30.593Z,2.08
2018-06-19T13:53:59.032Z,1.80
2018-06-19T13:57:35.671Z,1.57
2018-06-19T14:00:06.164Z,1.90
2018-06-19T14:02:34.510Z,1.80
2018-06-19T14:05:03.207Z,2.00
2018-06-19T14:07:36.931Z,2.20
2018-06-19T14:10:16.304Z,1.70
2018-06-19T14:12:52.644Z,1.80
2018-06-19T14:15:25.403Z,1.65
2018-06-19T14:17:53.628Z,1.70
2018-06-19T14:20:22.765Z,2.07
2018-06-19T14:22:50.972Z,1.67
2018-06-19T14:25:19.637Z,2.52
2018-06-19T14:27:47.967Z,1.80
2018-06-19T14:30:16.195Z,2.50
2018-06-19T14:32:44.960Z,2.50
2018-06-19T14:35:13.668Z,1.72
2018-06-19T14:37:43.423Z,2.00
2018-06-19T14:40:12.144Z,2.57
2018-06-19T14:42:40.419Z,1.77
2018-06-19T14:45:09.519Z,2.20
2018-06-19T14:47:44.855Z,1.87
2018-06-19T14:50:14.153Z,2.33
2018-06-19T14:52:42.433Z,2.40
2018-06-19T14:55:11.741Z,2.17
2018-06-19T14:57:40.280Z,1.60
2018-06-19T15:00:09.460Z,2.20
2018-06-19T15:02:37.708Z,2.33
2018-06-19T15:05:06.308Z,1.57
2018-06-19T15:07:41.676Z,1.97
2018-06-19T15:10:10.847Z,1.67
2018-06-19T15:12:39.072Z,2.12
2018-06-19T15:15:08.704Z,2.20
2018-06-19T15:17:38.156Z,1.50
2018-06-19T15:20:06.427Z,2.22
2018-06-19T15:22:34.915Z,2.70
2018-06-19T15:25:02.880Z,2.03
2018-06-19T15:27:31.177Z,1.53
2018-06-19T15:29:59.624Z,1.98
2018-06-19T15:32:28.088Z,2.00
2018-06-19T15:34:56.300Z,1.50
2018-06-19T15:37:24.520Z,2.00
2018-06-19T15:39:54.125Z,1.70
2018-06-19T15:42:22.439Z,1.90
2018-06-19T15:44:50.839Z,2.57
2018-06-19T15:47:23.222Z,2.85
2018-06-19T15:49:51.552Z,1.92
2018-06-19T15:52:20.164Z,2.12
2018-06-19T15:54:48.421Z,2.10
2018-06-19T15:57:17.425Z,1.95
2018-06-19T15:59:45.643Z,1.97
2018-06-19T16:02:17.768Z,2.00
2018-06-19T16:04:50.196Z,2.30
2018-06-19T16:07:18.425Z,2.37
2018-06-19T16:09:46.664Z,1.70
2018-06-19T16:12:14.875Z,2.20
2018-06-19T16:14:43.089Z,2.20
2018-06-19T16:17:15.000Z,1.90
2018-06-19T16:19:43.193Z,2.23
2018-06-19T16:22:11.528Z,1.53
2018-06-19T16:24:41.336Z,2.13
2018-06-19T16:27:09.551Z,2.27
2018-06-19T16:29:38.798Z,2.10
2018-06-19T16:32:07.040Z,2.08
2018-06-19T16:34:35.692Z,2.40
2018-06-19T16:37:04.226Z,2.80
2018-06-19T16:39:32.912Z,2.27
2018-06-19T16:42:01.259Z,2.05
2018-06-19T16:44:30.417Z,2.50
2018-06-19T16:46:58.920Z,1.90
2018-06-19T16:49:30.840Z,1.90
2018-06-19T16:51:59.780Z,2.40
2018-06-19T16:54:28.282Z,1.80
2018-06-19T16:56:56.518Z,2.13
2018-06-19T16:59:25.731Z,3.33
2018-06-19T17:01:54.788Z,2.60
2018-06-19T17:04:24.008Z,2.60
2018-06-19T17:06:52.824Z,2.47
2018-06-19T17:09:21.115Z,2.27
2018-06-19T17:11:49.311Z,2.10
2018-06-19T17:14:17.596Z,2.80
2018-06-19T17:16:46.801Z,1.87
2018-06-19T17:19:14.975Z,2.22
2018-06-19T17:21:43.172Z,2.73
2018-06-19T17:24:12.676Z,2.15
2018-06-19T17:26:40.896Z,2.47
2018-06-19T17:29:09.348Z,2.20
2018-06-19T17:31:37.927Z,2.30
2018-06-19T17:34:06.667Z,2.37
2018-06-19T17:36:35.817Z,2.40
2018-06-19T17:39:06.187Z,2.37
2018-06-19T17:41:34.745Z,2.93
2018-06-19T17:44:03.087Z,2.60
2018-06-19T17:46:34.758Z,2.50
2018-06-19T17:49:03.036Z,2.20
2018-06-19T17:51:31.287Z,2.63
2018-06-19T17:53:59.460Z,2.60
2018-06-19T17:56:27.664Z,2.57
2018-06-19T17:58:55.656Z,2.27
2018-06-19T18:01:23.914Z,2.53
2018-06-19T18:03:52.279Z,2.90
2018-06-19T18:06:20.873Z,2.10
2018-06-19T18:08:49.701Z,2.77
2018-06-19T18:11:17.967Z,2.17
2018-06-19T18:13:46.196Z,2.50
2018-06-19T18:16:15.269Z,2.80
2018-06-19T18:18:43.556Z,1.90
2018-06-19T18:21:11.748Z,3.30
2018-06-19T18:23:40.065Z,3.07
2018-06-19T18:26:08.204Z,2.10
2018-06-19T18:28:36.491Z,2.40
2018-06-19T18:31:05.883Z,2.10
2018-06-19T18:33:34.668Z,2.00
2018-06-19T18:36:05.980Z,2.70
2018-06-19T18:38:34.392Z,2.50
2018-06-19T18:41:03.576Z,2.63
2018-06-19T18:43:32.144Z,2.07
2018-06-19T18:46:01.871Z,2.23
2018-06-19T18:48:30.591Z,2.70
2018-06-19T18:50:59.144Z,2.30
2018-06-19T18:53:27.652Z,2.72
2018-06-19T18:55:56.696Z,2.50
2018-06-19T18:58:25.005Z,2.97
2018-06-19T19:00:53.407Z,2.80
2018-06-19T19:03:21.796Z,2.80
2018-06-19T19:05:54.111Z,2.40
2018-06-19T19:08:23.828Z,2.43
2018-06-19T19:10:55.266Z,2.60
2018-06-19T19:13:24.620Z,2.60
2018-06-19T19:15:58.899Z,2.70
2018-06-19T19:18:32.666Z,2.87
2018-06-19T19:21:07.005Z,3.00
2018-06-19T19:23:35.216Z,3.90
2018-06-19T19:26:03.515Z,2.83
2018-06-19T19:28:37.216Z,3.53
2018-06-19T19:31:05.437Z,3.10
2018-06-19T19:33:34.389Z,2.70
2018-06-19T19:36:05.570Z,2.47
2018-06-19T19:38:39.898Z,2.55
2018-06-19T19:41:08.120Z,3.23
2018-06-19T19:43:38.448Z,2.80
2018-06-19T19:46:06.725Z,2.73
2018-06-19T19:48:40.524Z,3.30
2018-06-19T19:51:13.700Z,3.20
2018-06-19T19:53:42.617Z,3.30
2018-06-19T19:58:19.468Z,3.40
2018-06-19T20:00:48.610Z,3.20
2018-06-19T20:03:16.920Z,2.80
2018-06-19T20:05:45.133Z,3.20
2018-06-19T20:08:18.016Z,3.45
2018-06-19T20:10:46.309Z,3.33
2018-06-19T20:13:14.624Z,3.50
2018-06-19T20:15:42.939Z,3.67
2018-06-19T20:18:11.143Z,3.27
2018-06-19T20:20:39.457Z,3.07
2018-06-19T20:23:08.351Z,2.85
2018-06-19T20:25:36.580Z,3.00
2018-06-19T20:28:04.900Z,2.90
2018-06-19T20:30:33.479Z,3.22
2018-06-19T20:33:02.528Z,3.30
2018-06-19T20:35:30.718Z,3.40
2018-06-19T20:37:58.922Z,2.77
2018-06-19T20:40:28.128Z,2.80
2018-06-19T20:42:56.352Z,2.90
2018-06-19T20:45:24.643Z,3.03
2018-06-19T20:47:53.491Z,2.77
2018-06-19T20:50:21.518Z,3.00
2018-06-19T20:52:49.840Z,2.50
2018-06-19T20:55:18.033Z,3.10
2018-06-19T20:57:46.220Z,3.27
2018-06-19T21:00:14.433Z,3.98
2018-06-19T21:02:42.778Z,3.83
2018-06-19T21:05:11.602Z,3.12
2018-06-19T21:07:39.872Z,3.43
2018-06-19T21:10:08.294Z,3.02
2018-06-19T21:12:38.336Z,3.80
2018-06-19T21:15:06.833Z,3.80
2018-06-19T21:17:35.328Z,3.70
2018-06-19T21:20:04.143Z,3.70
2018-06-19T21:22:41.014Z,3.77
2018-06-19T21:25:09.327Z,2.93
2018-06-19T21:27:37.471Z,4.70
2018-06-19T21:30:06.336Z,4.37
2018-06-19T21:32:34.555Z,4.10
2018-06-19T21:35:03.723Z,4.50
2018-06-19T21:37:31.926Z,3.53
2018-06-19T21:40:00.428Z,4.33
2018-06-19T21:42:29.744Z,3.95
2018-06-19T21:44:58.672Z,3.87
2018-06-19T21:47:26.948Z,3.63
2018-06-19T21:49:55.174Z,4.10
2018-06-19T21:52:23.772Z,3.77
2018-06-19T21:54:52.047Z,3.60
2018-06-19T21:57:20.015Z,4.07
2018-06-19T21:59:48.556Z,4.30
2018-06-19T22:02:33.196Z,4.20
2018-06-19T22:05:03.671Z,3.50
2018-06-19T22:07:32.767Z,4.17
2018-06-19T22:10:04.695Z,3.57
2018-06-19T22:12:32.895Z,3.80
2018-06-19T22:15:02.464Z,4.08
2018-06-19T22:17:30.696Z,5.30
2018-06-19T22:19:58.911Z,4.10
2018-06-19T22:22:27.099Z,3.90
2018-06-19T22:24:55.393Z,4.30
2018-06-19T22:27:23.701Z,4.60
2018-06-19T22:29:51.658Z,4.17
2018-06-19T22:32:19.908Z,5.07
2018-06-19T22:34:48.144Z,5.10
2018-06-19T22:37:16.388Z,5.40
2018-06-19T22:39:45.175Z,4.20
2018-06-19T22:42:16.424Z,4.63
2018-06-19T22:44:44.675Z,4.25
2018-06-19T22:47:13.063Z,7.60
2018-06-19T22:49:41.282Z,4.60
2018-06-19T22:52:10.116Z,4.78
2018-06-19T22:54:38.318Z,4.40
2018-06-19T22:57:06.651Z,5.50
2018-06-19T22:59:34.863Z,5.10
2018-06-19T23:02:03.076Z,5.80
2018-06-19T23:04:31.624Z,5.37
2018-06-19T23:07:00.716Z,4.33
2018-06-19T23:09:28.895Z,5.80
2018-06-19T23:12:00.447Z,4.53
2018-06-19T23:14:28.655Z,5.00
2018-06-19T23:16:57.599Z,5.03
2018-06-19T23:19:25.735Z,4.97
2018-06-19T23:21:54.030Z,3.97
2018-06-19T23:24:22.227Z,5.23
2018-06-19T23:26:50.913Z,4.95
2018-06-19T23:29:19.968Z,6.00
2018-06-19T23:31:48.180Z,4.92
2018-06-19T23:34:16.367Z,4.87
2018-06-19T23:36:44.623Z,5.40
2018-06-19T23:39:12.851Z,5.33
2018-06-19T23:41:44.395Z,5.50
2018-06-19T23:44:12.594Z,4.80
2018-06-19T23:46:40.808Z,5.50
2018-06-19T23:49:08.983Z,5.80
2018-06-19T23:51:37.216Z,5.80
2018-06-19T23:54:05.226Z,6.30
2018-06-19T23:56:36.352Z,6.67
2018-06-19T23:59:04.660Z,5.70
